Time;durP1;ratioP1;P1;durP2;ratioP2;P2;SDS_P1;SDS_P2;PMS_P1;PMS_P2;Temp;Humidity;BMP_temperature;BMP_pressure;BME280_temperature;BME280_humidity;BME280_pressure;Samples;Min_cycle;Max_cycle;Signal;HPM_P1;HPM_P2
2022/04/13 00:02:11;;;;;;;3.85;2.92;;;;;;;21.57;29.83;100771.47;5016105;28;20524;-82
2022/04/13 00:04:39;;;;;;;4.43;3.13;;;;;;;21.55;30.18;100782.69;5015348;28;20053;-82
2022/04/13 00:07:05;;;;;;;4.95;3.25;;;;;;;21.54;30.31;100783.72;5016413;28;20692;-82
2022/04/13 00:09:32;;;;;;;5.65;3.35;;;;;;;21.53;29.96;100782.00;5017280;28;20515;-82
2022/04/13 00:12:00;;;;;;;5.80;3.53;;;;;;;21.53;29.84;100775.59;5020249;28;20046;-81
2022/04/13 00:14:26;;;;;;;4.80;3.30;;;;;;;21.52;29.85;100771.97;5012208;28;20081;-82
2022/04/13 00:16:54;;;;;;;6.07;3.35;;;;;;;21.51;30.25;100773.00;5018428;28;20119;-81
2022/04/13 00:19:21;;;;;;;4.25;2.95;;;;;;;21.50;30.15;100774.03;5018389;28;20057;-81
2022/04/13 00:21:48;;;;;;;5.28;3.15;;;;;;;21.49;30.41;100777.88;5012771;28;20133;-82
2022/04/13 00:24:15;;;;;;;5.13;3.10;;;;;;;21.48;30.27;100772.50;5009471;28;20485;-82
2022/04/13 00:26:41;;;;;;;4.22;2.63;;;;;;;21.46;29.97;100771.81;5017013;28;20137;-82
2022/04/13 00:29:09;;;;;;;4.53;2.90;;;;;;;21.43;30.14;100769.41;5016029;28;20077;-81
2022/04/13 00:31:36;;;;;;;4.93;2.90;;;;;;;21.41;30.08;100774.25;5017281;28;20042;-82
2022/04/13 00:34:03;;;;;;;6.55;3.40;;;;;;;21.38;30.45;100780.97;5013401;28;20077;-81
2022/04/13 00:36:29;;;;;;;4.95;2.92;;;;;;;21.36;30.53;100780.28;5015205;28;20150;-82
2022/04/13 00:38:56;;;;;;;4.88;2.85;;;;;;;21.35;30.38;100781.31;5013325;28;20092;-82
2022/04/13 00:41:22;;;;;;;5.93;3.03;;;;;;;21.34;30.48;100795.28;5015262;28;20049;-82
2022/04/13 00:44:09;;;;;;;4.15;2.70;;;;;;;21.34;30.52;100784.25;5012690;28;20115;-82
2022/04/13 00:46:37;;;;;;;4.65;2.80;;;;;;;21.31;30.24;100784.63;5010749;28;20073;-82
2022/04/13 00:49:05;;;;;;;5.18;2.60;;;;;;;21.32;30.14;100791.88;5011876;28;20545;-82
2022/04/13 00:51:33;;;;;;;5.03;2.90;;;;;;;21.27;30.68;100792.38;5013496;28;20099;-82
2022/04/13 00:54:00;;;;;;;4.68;2.88;;;;;;;21.27;30.67;100795.13;5012389;28;20096;-82
2022/04/13 00:56:29;;;;;;;3.78;2.65;;;;;;;21.26;30.59;100793.41;5012378;28;20128;-82
2022/04/13 00:59:04;;;;;;;4.72;3.25;;;;;;;21.26;30.83;100796.16;5012738;28;20085;-82
2022/04/13 01:01:36;;;;;;;4.93;2.90;;;;;;;21.23;30.57;100794.63;5011478;28;20065;-82
2022/04/13 01:04:06;;;;;;;5.13;2.80;;;;;;;21.19;30.80;100796.00;5018611;28;20050;-82
2022/04/13 01:06:33;;;;;;;4.10;2.80;;;;;;;21.17;30.36;100795.28;5013987;28;20050;-83
2022/04/13 01:09:01;;;;;;;4.15;2.83;;;;;;;21.16;30.81;100795.47;5012327;28;20417;-83
2022/04/13 01:11:28;;;;;;;7.85;3.40;;;;;;;21.13;30.47;100795.78;5012921;28;20100;-83
2022/04/13 01:13:56;;;;;;;5.68;3.13;;;;;;;21.11;30.89;100797.84;5013336;28;20081;-83
2022/04/13 01:16:24;;;;;;;4.20;2.70;;;;;;;21.10;30.55;100796.13;5012601;28;20113;-83
2022/04/13 01:18:51;;;;;;;5.50;2.90;;;;;;;21.06;30.79;100803.91;5012193;28;20494;-83
2022/04/13 01:21:19;;;;;;;5.30;2.88;;;;;;;21.05;30.79;100804.06;5010259;28;20387;-83
2022/04/13 01:23:47;;;;;;;4.18;2.42;;;;;;;21.03;30.54;100798.72;5011796;28;20517;-83
2022/04/13 01:26:13;;;;;;;5.35;2.53;;;;;;;21.00;31.02;100801.81;5028169;28;20046;-83
2022/04/13 01:28:40;;;;;;;4.90;3.15;;;;;;;20.99;30.71;100807.53;5011825;28;20140;-83
2022/04/13 01:31:07;;;;;;;4.65;2.90;;;;;;;20.98;30.92;100811.31;5028802;28;20053;-83
2022/04/13 01:33:34;;;;;;;4.60;2.80;;;;;;;20.97;31.16;100817.88;5013049;28;20089;-83
2022/04/13 01:36:01;;;;;;;5.30;2.83;;;;;;;20.95;31.10;100818.03;5012506;28;20053;-83
2022/04/13 01:38:29;;;;;;;4.80;2.85;;;;;;;20.96;31.13;100821.66;5013305;28;20136;-84
2022/04/13 01:40:56;;;;;;;4.93;2.60;;;;;;;20.94;31.17;100819.06;5012094;28;21064;-83
2022/04/13 01:43:24;;;;;;;4.38;2.72;;;;;;;20.94;31.28;100819.06;4965757;28;1390336;-82
2022/04/13 01:45:51;;;;;;;4.50;2.80;;;;;;;20.94;31.25;100820.97;5014343;28;20061;-82
2022/04/13 01:48:18;;;;;;;4.00;2.67;;;;;;;20.93;31.20;100817.34;5013652;28;20065;-82
2022/04/13 01:50:45;;;;;;;5.95;2.90;;;;;;;20.94;30.80;100821.81;5014399;28;20104;-82
2022/04/13 01:53:13;;;;;;;5.13;2.83;;;;;;;20.93;31.05;100835.78;5028770;28;20050;-82
2022/04/13 01:55:39;;;;;;;4.38;3.00;;;;;;;20.92;31.05;100834.09;5013009;28;20046;-82
2022/04/13 01:58:06;;;;;;;4.45;2.67;;;;;;;20.91;31.30;100840.63;5014778;28;20087;-82
2022/04/13 02:00:36;;;;;;;4.30;2.72;;;;;;;20.92;31.44;100832.16;5011165;28;20130;-82
2022/04/13 02:03:03;;;;;;;5.05;2.80;;;;;;;20.89;31.05;100836.16;5014674;28;20054;-82
2022/04/13 02:05:31;;;;;;;5.43;2.53;;;;;;;20.87;31.47;100835.44;5011827;28;20057;-82
2022/04/13 02:07:57;;;;;;;4.93;2.50;;;;;;;20.85;31.21;100840.25;5014704;28;20132;-82
2022/04/13 02:10:24;;;;;;;5.05;2.60;;;;;;;20.84;31.59;100841.28;5010460;28;20080;-82
2022/04/13 02:12:51;;;;;;;5.13;2.42;;;;;;;20.83;30.95;100845.13;5014052;28;20081;-82
2022/04/13 02:15:34;;;;;;;4.85;2.85;;;;;;;20.84;31.54;100846.81;5010070;28;20151;-82
2022/04/13 02:18:00;;;;;;;3.90;2.28;;;;;;;20.79;31.27;100851.97;5014397;28;20135;-82
2022/04/13 02:20:27;;;;;;;4.38;2.55;;;;;;;20.80;31.16;100850.09;5005717;28;20104;-82
2022/04/13 02:22:54;;;;;;;4.68;2.30;;;;;;;20.78;31.34;100853.00;5012137;28;20073;-82
2022/04/13 02:25:20;;;;;;;3.53;2.38;;;;;;;20.76;31.19;100854.22;5011402;28;20046;-82
2022/04/13 02:27:47;;;;;;;5.05;2.60;;;;;;;20.74;31.33;100857.16;5014141;28;20101;-81
2022/04/13 02:30:15;;;;;;;4.13;2.70;;;;;;;20.71;31.19;100856.63;5011233;28;20132;-82
2022/04/13 02:32:46;;;;;;;4.53;2.50;;;;;;;20.69;31.22;100865.06;5004407;28;20081;-82
2022/04/13 02:35:13;;;;;;;4.10;2.67;;;;;;;20.68;31.77;100865.22;5010493;28;20145;-83
2022/04/13 02:37:41;;;;;;;3.85;2.30;;;;;;;20.65;31.60;100862.81;5020560;28;20050;-83
2022/04/13 02:40:08;;;;;;;4.03;2.60;;;;;;;20.62;31.52;100865.91;5012505;28;20092;-82
2022/04/13 02:42:36;;;;;;;5.65;2.40;;;;;;;20.60;31.42;100868.81;5013083;28;20077;-83
2022/04/13 02:45:04;;;;;;;4.60;2.80;;;;;;;20.58;31.58;100867.28;5012022;28;20069;-83
2022/04/13 02:47:35;;;;;;;4.13;2.60;;;;;;;20.56;31.90;100869.31;5012888;28;20093;-83
2022/04/13 02:50:08;;;;;;;4.45;2.58;;;;;;;20.52;31.94;100866.03;5011353;28;20053;-83
2022/04/13 02:52:35;;;;;;;4.45;2.67;;;;;;;20.48;31.71;100881.19;5013886;28;20149;-84
2022/04/13 02:55:03;;;;;;;4.38;2.40;;;;;;;20.45;32.13;100884.28;5011991;28;20417;-83
2022/04/13 02:57:29;;;;;;;4.85;2.95;;;;;;;20.43;31.93;100883.56;5013521;28;20540;-83
2022/04/13 03:00:07;;;;;;;4.60;2.90;;;;;;;20.43;32.33;100891.84;5010884;28;20484;-83
2022/04/13 03:02:39;;;;;;;5.53;2.80;;;;;;;20.40;32.30;100892.19;5012738;28;20135;-83
2022/04/13 03:05:07;;;;;;;4.82;2.67;;;;;;;20.34;31.95;100888.19;5010330;28;20060;-83
2022/04/13 03:07:34;;;;;;;3.90;2.22;;;;;;;20.31;32.22;100890.38;5013509;28;20050;-83
2022/04/13 03:10:01;;;;;;;4.72;2.63;;;;;;;20.29;31.75;100892.44;5011280;28;20058;-84
2022/04/13 03:12:29;;;;;;;4.90;2.80;;;;;;;20.25;32.43;100893.81;5011513;28;20100;-83
2022/04/13 03:14:56;;;;;;;6.32;3.22;;;;;;;20.23;32.27;100895.84;5009907;28;20490;-83
2022/04/13 03:17:23;;;;;;;3.88;2.67;;;;;;;20.19;32.39;100897.19;5010346;28;20128;-83
2022/04/13 03:19:50;;;;;;;5.45;2.83;;;;;;;20.16;32.47;100895.66;5010342;28;20485;-83
2022/04/13 03:22:16;;;;;;;4.82;2.80;;;;;;;20.12;32.28;100889.59;5010621;28;20050;-83
2022/04/13 03:24:43;;;;;;;4.63;2.67;;;;;;;20.09;32.32;100891.81;5005133;28;20068;-83
2022/04/13 03:27:10;;;;;;;4.25;3.00;;;;;;;20.06;32.33;100894.91;5008271;28;20485;-84
2022/04/13 03:29:36;;;;;;;4.00;2.50;;;;;;;20.04;32.41;100903.31;5009290;28;20200;-83
2022/04/13 03:32:03;;;;;;;4.15;2.83;;;;;;;20.02;32.56;100899.84;5010818;28;20440;-84
2022/04/13 03:34:30;;;;;;;5.75;2.97;;;;;;;20.00;32.58;100910.19;4983081;28;20053;-84
2022/04/13 03:37:00;;;;;;;5.10;3.10;;;;;;;19.98;32.67;100909.50;5010560;28;20468;-84
2022/04/13 03:39:27;;;;;;;4.38;2.80;;;;;;;19.98;32.58;100912.25;5006516;28;20058;-83
2022/04/13 03:41:54;;;;;;;5.45;3.08;;;;;;;19.97;32.65;100915.16;5010191;28;20076;-84
2022/04/13 03:44:21;;;;;;;6.13;3.00;;;;;;;19.96;32.43;100924.44;5011596;28;20054;-84
2022/04/13 03:46:53;;;;;;;5.20;3.05;;;;;;;19.93;32.73;100917.34;5011759;28;20053;-85
2022/04/13 03:49:20;;;;;;;5.88;3.60;;;;;;;19.93;32.74;100917.34;5011602;28;20409;-84
2022/04/13 03:51:47;;;;;;;4.78;2.67;;;;;;;19.93;33.26;100920.13;5013704;28;20042;-85
2022/04/13 03:54:14;;;;;;;5.45;2.80;;;;;;;19.91;32.83;100926.84;5010924;28;20172;-85
2022/04/13 03:56:40;;;;;;;5.57;3.15;;;;;;;19.89;32.89;100928.88;5012087;28;20049;-85
2022/04/13 03:59:07;;;;;;;4.75;2.80;;;;;;;19.87;33.08;100922.66;5013644;28;20058;-85
2022/04/13 04:01:37;;;;;;;5.55;3.15;;;;;;;19.88;33.21;100939.03;5007706;28;20133;-85
2022/04/13 04:04:04;;;;;;;4.00;2.88;;;;;;;19.83;33.08;100933.16;5003740;28;20132;-84
2022/04/13 04:06:30;;;;;;;4.30;2.70;;;;;;;19.83;33.22;100941.41;5010852;28;20085;-84
2022/04/13 04:08:57;;;;;;;4.55;2.78;;;;;;;19.82;33.09;100941.56;5012106;28;20045;-84
2022/04/13 04:11:23;;;;;;;4.25;3.00;;;;;;;19.80;33.42;100947.25;5012081;28;20104;-84
2022/04/13 04:13:50;;;;;;;4.53;3.35;;;;;;;19.79;33.22;100944.63;5011305;28;20065;-84
2022/04/13 04:16:17;;;;;;;4.88;3.03;;;;;;;19.77;33.11;100942.03;5018962;28;20050;-84
2022/04/13 04:18:45;;;;;;;5.05;2.88;;;;;;;19.75;33.51;100946.88;5010611;28;20058;-83
2022/04/13 04:21:12;;;;;;;5.82;3.35;;;;;;;19.72;33.31;100934.25;5013569;28;20061;-84
2022/04/13 04:23:38;;;;;;;5.05;3.40;;;;;;;19.71;33.67;100938.03;5010882;28;20140;-83
2022/04/13 04:26:05;;;;;;;4.50;3.10;;;;;;;19.71;33.57;100942.69;5011053;28;20054;-83
2022/04/13 04:28:31;;;;;;;4.75;3.13;;;;;;;19.71;33.45;100945.44;5011665;28;20037;-83
2022/04/13 04:30:58;;;;;;;4.75;3.03;;;;;;;19.70;33.59;100944.56;5012909;28;20050;-84
2022/04/13 04:33:26;;;;;;;4.60;2.92;;;;;;;19.70;33.53;100940.94;5010113;28;20046;-84
2022/04/13 04:35:52;;;;;;;4.85;2.70;;;;;;;19.69;33.35;100939.22;5011461;28;20109;-84
2022/04/13 04:38:19;;;;;;;4.80;2.70;;;;;;;19.69;33.47;100939.22;5010969;28;20136;-83
2022/04/13 04:40:46;;;;;;;5.28;2.92;;;;;;;19.67;33.68;100944.91;5012357;28;20077;-84
2022/04/13 04:43:13;;;;;;;5.50;2.80;;;;;;;19.65;33.66;100941.44;5013169;28;20068;-83
2022/04/13 04:45:39;;;;;;;5.15;2.60;;;;;;;19.65;33.71;100952.47;5011470;28;20133;-84
2022/04/13 04:48:06;;;;;;;5.30;2.75;;;;;;;19.63;33.66;100951.75;5013270;28;20050;-82
2022/04/13 04:50:34;;;;;;;5.65;2.92;;;;;;;19.63;33.74;100946.22;4996988;28;20081;-83
2022/04/13 04:53:01;;;;;;;5.18;2.85;;;;;;;19.62;33.86;100947.25;5014989;28;20124;-84
2022/04/13 04:55:29;;;;;;;4.45;3.00;;;;;;;19.61;33.77;100941.91;5014253;28;20140;-85
2022/04/13 04:57:55;;;;;;;5.28;3.03;;;;;;;19.59;34.12;100944.84;5016612;28;20108;-85
2022/04/13 05:00:25;;;;;;;5.03;2.80;;;;;;;19.62;34.01;100949.13;5013103;28;20053;-85
2022/04/13 05:02:53;;;;;;;4.28;2.88;;;;;;;19.59;34.15;100949.47;5015245;28;20119;-85
2022/04/13 05:05:21;;;;;;;5.10;2.65;;;;;;;19.56;33.84;100947.91;5013837;28;20058;-85
2022/04/13 05:07:48;;;;;;;5.70;3.35;;;;;;;19.55;34.27;100959.94;5010700;28;20563;-85
2022/04/13 05:10:15;;;;;;;6.22;2.80;;;;;;;19.54;34.29;100966.47;5014043;28;20136;-84
2022/04/13 05:12:49;;;;;;;6.50;3.22;;;;;;;19.57;34.48;100959.78;5002206;28;20133;-83
2022/04/13 05:15:16;;;;;;;5.38;2.90;;;;;;;19.52;34.31;100960.22;5012008;28;20561;-83
2022/04/13 05:17:42;;;;;;;6.85;3.13;;;;;;;19.53;34.40;100970.22;5014435;28;20141;-83
2022/04/13 05:20:10;;;;;;;5.20;3.25;;;;;;;19.54;34.42;100965.59;5012709;28;20136;-84
2022/04/13 05:22:37;;;;;;;4.47;2.85;;;;;;;19.54;34.66;100971.09;5003123;28;20065;-84
2022/04/13 05:25:06;;;;;;;5.30;2.90;;;;;;;19.55;34.72;100979.22;5013881;28;20061;-85
2022/04/13 05:27:33;;;;;;;5.25;3.05;;;;;;;19.54;34.47;100977.47;5014184;28;20049;-86
2022/04/13 05:30:00;;;;;;;5.78;2.83;;;;;;;19.56;34.53;100982.84;5014506;28;20076;-86
2022/04/13 05:32:27;;;;;;;4.38;2.47;;;;;;;19.56;34.92;100978.19;5001644;28;20050;-85
2022/04/13 05:35:02;;;;;;;5.00;3.10;;;;;;;19.61;35.01;100992.34;5013186;28;20078;-85
2022/04/13 05:37:29;;;;;;;7.20;3.30;;;;;;;19.60;34.84;100990.59;5017780;28;20080;-86
2022/04/13 05:39:55;;;;;;;5.30;3.20;;;;;;;19.61;34.56;101002.50;5014941;28;20221;-85
2022/04/13 05:42:25;;;;;;;4.70;3.15;;;;;;;19.65;34.93;101003.94;5012529;28;20073;-83
2022/04/13 05:44:52;;;;;;;5.13;3.10;;;;;;;19.64;34.93;101002.19;5010814;28;20054;-85
2022/04/13 05:47:19;;;;;;;5.97;3.22;;;;;;;19.65;35.07;101007.56;5000550;28;20136;-86
2022/04/13 05:49:45;;;;;;;4.82;3.35;;;;;;;19.67;34.86;101015.66;5012227;28;20085;-82
2022/04/13 05:52:12;;;;;;;5.63;3.35;;;;;;;19.69;35.10;101016.34;5013471;28;20100;-81
2022/04/13 05:54:38;;;;;;;5.85;3.03;;;;;;;19.71;34.77;101020.69;5028733;28;20062;-79
2022/04/13 05:57:06;;;;;;;5.07;3.40;;;;;;;19.75;35.16;101030.38;5007160;28;20850;-83
2022/04/13 05:59:32;;;;;;;5.93;3.42;;;;;;;19.79;35.11;101035.56;5008741;28;20099;-83
2022/04/13 06:02:02;;;;;;;4.75;3.50;;;;;;;19.86;35.41;101036.66;4999396;28;20054;-84
2022/04/13 06:04:34;;;;;;;6.30;3.35;;;;;;;19.86;35.50;101042.16;4999388;28;20049;-83
2022/04/13 06:07:01;;;;;;;5.28;3.20;;;;;;;19.90;35.26;101040.84;5004791;28;20100;-84
2022/04/13 06:09:27;;;;;;;5.07;3.13;;;;;;;19.93;35.29;101041.38;4994449;28;20090;-84
2022/04/13 06:11:54;;;;;;;5.82;4.10;;;;;;;19.96;35.52;101051.22;5003547;28;20486;-84
2022/04/13 06:14:21;;;;;;;6.18;3.60;;;;;;;20.01;35.15;101051.63;5004239;28;20115;-83
2022/04/13 06:16:48;;;;;;;8.07;3.95;;;;;;;20.04;35.51;101043.03;5008641;28;20050;-84
2022/04/13 06:19:14;;;;;;;8.23;4.03;;;;;;;20.08;35.51;101048.06;5011235;28;20065;-84
2022/04/13 06:21:41;;;;;;;7.25;3.80;;;;;;;20.12;35.46;101051.38;5010787;28;20285;-82
2022/04/13 06:24:09;;;;;;;5.10;3.70;;;;;;;20.18;35.14;101060.91;4996298;28;20430;-84
2022/04/13 06:26:36;;;;;;;5.75;3.60;;;;;;;20.19;35.30;101055.22;5006378;28;20042;-83
2022/04/13 06:29:03;;;;;;;6.00;3.55;;;;;;;20.23;35.15;101056.63;5010184;28;20081;-83
2022/04/13 06:31:29;;;;;;;4.72;3.38;;;;;;;20.27;35.00;101057.16;5010061;28;20045;-84
2022/04/13 06:33:56;;;;;;;6.40;3.70;;;;;;;20.31;34.98;101056.69;5010748;28;20482;-84
2022/04/13 06:36:23;;;;;;;6.28;3.90;;;;;;;20.36;35.04;101064.50;5008979;28;20046;-83
2022/04/13 06:38:49;;;;;;;6.07;3.67;;;;;;;20.42;35.00;101074.94;5008872;28;20409;-83
2022/04/13 06:41:16;;;;;;;5.47;3.63;;;;;;;20.47;35.21;101073.41;5010296;28;20239;-83
2022/04/13 06:43:43;;;;;;;6.07;3.88;;;;;;;20.54;35.31;101065.34;5010102;28;20058;-84
2022/04/13 06:46:09;;;;;;;5.95;3.28;;;;;;;20.62;35.48;101075.56;5008964;28;20054;-83
2022/04/13 06:48:36;;;;;;;5.18;3.20;;;;;;;20.71;35.04;101069.06;5000459;28;20066;-83
2022/04/13 06:51:03;;;;;;;5.05;3.00;;;;;;;20.80;35.46;101073.63;5003335;28;20133;-83
2022/04/13 06:53:30;;;;;;;6.15;3.70;;;;;;;20.89;35.05;101075.41;5021242;28;20054;-83
2022/04/13 06:55:56;;;;;;;6.32;3.20;;;;;;;20.99;35.31;101083.56;5008502;28;20112;-83
2022/04/13 06:58:23;;;;;;;5.85;3.17;;;;;;;21.08;35.04;101086.22;5007312;28;20042;-83
2022/04/13 07:00:50;;;;;;;5.97;3.33;;;;;;;21.19;35.30;101082.31;5001995;28;20100;-83
2022/04/13 07:03:16;;;;;;;6.88;3.33;;;;;;;21.31;35.44;101085.66;5006826;28;20042;-83
2022/04/13 07:05:43;;;;;;;7.43;3.55;;;;;;;21.41;34.95;101086.38;5007437;28;20073;-83
2022/04/13 07:08:10;;;;;;;7.88;3.60;;;;;;;21.55;35.02;101088.50;5010247;28;20054;-83
2022/04/13 07:10:37;;;;;;;7.00;3.92;;;;;;;21.67;34.69;101083.50;5003346;28;20576;-83
2022/04/13 07:13:28;;;;;;;6.82;3.65;;;;;;;21.81;34.64;101080.97;5009317;28;20042;-83
2022/04/13 07:15:55;;;;;;;8.73;4.10;;;;;;;21.95;34.74;101076.66;4996852;28;20057;-85
2022/04/13 07:18:28;;;;;;;7.82;4.00;;;;;;;22.11;34.51;101078.63;4986700;28;20497;-84
2022/04/13 07:20:55;;;;;;;9.40;4.18;;;;;;;22.24;34.37;101081.72;4992445;28;20045;-84
2022/04/13 07:23:21;;;;;;;8.75;4.40;;;;;;;22.36;34.01;101086.75;5020849;28;20083;-83
2022/04/13 07:25:48;;;;;;;9.23;4.55;;;;;;;22.48;33.54;101089.19;5006691;28;20069;-83
2022/04/13 07:28:15;;;;;;;9.50;4.47;;;;;;;22.58;33.92;101087.94;4996828;28;20046;-84
2022/04/13 07:30:41;;;;;;;7.88;4.38;;;;;;;22.67;33.41;101084.13;5010981;28;20133;-85
2022/04/13 07:33:08;;;;;;;6.95;4.28;;;;;;;22.79;33.39;101087.44;5007047;28;20049;-85
2022/04/13 07:35:35;;;;;;;7.45;4.50;;;;;;;22.90;33.70;101088.94;5003828;28;20509;-84
2022/04/13 07:38:01;;;;;;;7.78;4.55;;;;;;;23.00;33.66;101095.16;4989147;28;20080;-84
2022/04/13 07:40:28;;;;;;;6.60;4.47;;;;;;;23.11;33.64;101103.09;4994015;28;20539;-84
2022/04/13 07:42:55;;;;;;;7.40;4.53;;;;;;;23.23;33.41;101104.44;4999145;28;20536;-85
2022/04/13 07:45:22;;;;;;;8.07;4.00;;;;;;;23.35;33.38;101100.25;5005624;28;20389;-84
2022/04/13 07:47:49;;;;;;;7.32;4.38;;;;;;;23.48;32.91;101105.19;5003570;28;20053;-85
2022/04/13 07:50:15;;;;;;;7.78;4.53;;;;;;;23.59;32.78;101113.16;5005723;28;20080;-86
2022/04/13 07:52:43;;;;;;;7.85;4.75;;;;;;;23.73;32.77;101114.28;5007922;28;20381;-86
2022/04/13 07:55:10;;;;;;;9.30;5.07;;;;;;;23.85;32.82;101118.38;5005769;28;20061;-85
2022/04/13 07:57:38;;;;;;;8.18;5.22;;;;;;;23.97;32.45;101124.38;5005170;28;20046;-82
2022/04/13 08:00:06;;;;;;;7.57;4.25;;;;;;;24.10;32.12;101128.28;5008082;28;20522;-81
2022/04/13 08:02:34;;;;;;;7.43;3.70;;;;;;;24.20;32.31;101120.63;5017295;28;20477;-82
2022/04/13 08:05:01;;;;;;;10.05;4.80;;;;;;;24.33;31.98;101124.69;5007128;28;20401;-81
2022/04/13 08:07:29;;;;;;;9.18;5.20;;;;;;;24.46;32.22;101139.66;5009791;28;20090;-76
2022/04/13 08:09:56;;;;;;;9.65;5.60;;;;;;;24.58;31.51;101143.72;5001580;28;20092;-76
2022/04/13 08:12:27;;;;;;;10.00;5.10;;;;;;;24.74;31.90;101147.41;5007214;28;20057;-75
2022/04/13 08:14:53;;;;;;;10.50;5.78;;;;;;;24.83;31.24;101149.06;5000836;28;20057;-74
2022/04/13 08:17:20;;;;;;;10.35;5.45;;;;;;;24.93;31.56;101149.69;5005326;28;20093;-75
2022/04/13 08:19:46;;;;;;;10.10;5.45;;;;;;;25.03;31.61;101150.28;5001416;28;20129;-75
2022/04/13 08:22:14;;;;;;;10.60;5.55;;;;;;;25.13;31.05;101161.09;5009989;28;20047;-75
2022/04/13 08:24:40;;;;;;;9.55;5.50;;;;;;;25.20;30.92;101154.59;5012542;28;20540;-78
2022/04/13 08:27:09;;;;;;;7.47;5.13;;;;;;;25.29;30.80;101164.56;5008437;28;20476;-74
2022/04/13 08:29:35;;;;;;;8.70;4.85;;;;;;;25.38;30.60;101165.34;5011148;28;20413;-76
2022/04/13 08:32:03;;;;;;;10.88;5.40;;;;;;;25.46;30.35;101162.47;5011508;28;20049;-76
2022/04/13 08:34:29;;;;;;;8.50;4.97;;;;;;;25.52;30.69;101160.84;5007106;28;20069;-76
2022/04/13 08:36:56;;;;;;;10.25;5.32;;;;;;;25.60;30.57;101156.09;5002859;28;20104;-76
2022/04/13 08:39:23;;;;;;;9.27;5.47;;;;;;;25.67;30.20;101167.31;5001432;28;20057;-75
2022/04/13 08:42:09;;;;;;;9.10;5.03;;;;;;;25.77;29.88;101165.09;5011618;28;20456;-76
2022/04/13 08:44:48;;;;;;;9.48;4.93;;;;;;;25.84;29.86;101157.69;5008653;28;20112;-75
2022/04/13 08:47:18;;;;;;;9.23;5.00;;;;;;;25.89;30.02;101157.94;5011446;28;20401;-75
2022/04/13 08:49:45;;;;;;;10.35;5.55;;;;;;;25.98;30.04;101165.13;5009264;28;20066;-75
2022/04/13 08:52:17;;;;;;;9.68;5.20;;;;;;;26.07;29.14;101169.53;5014782;28;20390;-75
2022/04/13 08:55:05;;;;;;;6.85;4.35;;;;;;;26.11;29.02;101167.19;5011628;28;20058;-75
2022/04/13 08:57:37;;;;;;;10.68;5.55;;;;;;;26.20;29.39;101168.81;5010577;28;20045;-75
2022/04/13 09:00:11;;;;;;;7.72;4.43;;;;;;;26.25;29.22;101169.09;5004881;28;20049;-76
2022/04/13 09:02:47;;;;;;;8.95;4.78;;;;;;;26.34;29.24;101167.94;5001289;28;20119;-75
2022/04/13 09:05:20;;;;;;;8.05;4.75;;;;;;;26.40;29.09;101157.94;5002129;28;20141;-75
2022/04/13 09:07:53;;;;;;;9.35;4.95;;;;;;;26.45;28.99;101159.06;5010613;28;20576;-75
2022/04/13 09:10:21;;;;;;;7.15;4.55;;;;;;;26.51;29.43;101157.41;5008569;28;20104;-75
2022/04/13 09:16:31;;;;;;;8.02;3.83;;;;;;;26.67;29.30;101165.50;5010068;28;20049;-77
2022/04/13 09:18:58;;;;;;;7.38;4.13;;;;;;;26.76;29.12;101161.50;5011713;28;20073;-75
2022/04/13 09:21:27;;;;;;;7.32;3.80;;;;;;;26.86;29.19;101164.78;5005048;28;20085;-75
2022/04/13 09:23:55;;;;;;;8.30;4.20;;;;;;;26.96;28.89;101170.06;5007456;28;20153;-75
2022/04/13 09:26:25;;;;;;;8.50;3.88;;;;;;;27.07;28.84;101169.50;5007783;28;20045;-75
2022/04/13 09:28:51;;;;;;;10.20;5.15;;;;;;;27.13;28.51;101162.25;5008953;28;20054;-74
2022/04/13 09:31:20;;;;;;;7.88;4.53;;;;;;;27.19;28.05;101167.00;5005252;28;20088;-75
2022/04/13 09:33:47;;;;;;;7.72;4.47;;;;;;;27.22;28.00;101173.06;5009600;28;20058;-75
2022/04/13 09:36:19;;;;;;;6.88;4.15;;;;;;;27.23;28.02;101177.56;5009844;28;20060;-75
2022/04/13 09:38:47;;;;;;;7.75;3.85;;;;;;;27.28;27.83;101179.72;4995946;28;20054;-75
2022/04/13 09:41:13;;;;;;;8.50;4.18;;;;;;;27.27;27.78;101178.00;5009366;28;20490;-75
2022/04/13 09:43:40;;;;;;;7.13;3.88;;;;;;;27.26;27.71;101173.53;5010241;28;20140;-76
2022/04/13 09:46:08;;;;;;;8.50;4.03;;;;;;;27.24;27.67;101179.28;5007775;28;20073;-75
2022/04/13 09:48:40;;;;;;;6.30;3.88;;;;;;;27.21;27.33;101174.09;5009465;28;20061;-75
2022/04/13 09:51:08;;;;;;;7.45;4.32;;;;;;;27.21;27.49;101176.03;5007292;28;20089;-74
2022/04/13 09:53:41;;;;;;;10.15;4.25;;;;;;;27.23;27.74;101180.34;5010636;28;20125;-74
2022/04/13 09:56:16;;;;;;;6.57;4.20;;;;;;;27.20;27.55;101180.75;5001376;28;20555;-75
2022/04/13 09:58:43;;;;;;;7.75;4.68;;;;;;;27.16;27.89;101175.78;5010804;28;20120;-75
2022/04/13 10:01:11;;;;;;;8.18;4.38;;;;;;;27.15;27.67;101186.09;5010228;28;20088;-74
2022/04/13 10:03:53;;;;;;;9.30;4.72;;;;;;;27.14;27.56;101187.16;5010350;28;20049;-75
2022/04/13 10:06:27;;;;;;;9.33;4.57;;;;;;;27.13;27.65;101190.13;5007334;28;20073;-75
2022/04/13 10:09:04;;;;;;;12.23;4.63;;;;;;;27.14;28.05;101184.34;5008145;28;20289;-73
2022/04/13 10:11:31;;;;;;;8.15;4.35;;;;;;;27.12;28.00;101185.63;5008142;28;20099;-74
2022/04/13 10:14:05;;;;;;;8.30;4.80;;;;;;;27.17;28.15;101180.31;5006170;28;20046;-75
2022/04/13 10:16:35;;;;;;;7.78;4.53;;;;;;;27.17;27.66;101189.53;5005624;28;20150;-75
2022/04/13 10:19:04;;;;;;;6.80;4.10;;;;;;;27.19;28.17;101192.09;5006675;28;20417;-72
2022/04/13 10:21:43;;;;;;;6.45;3.95;;;;;;;27.22;27.65;101180.56;5010032;28;20547;-72
2022/04/13 10:24:30;;;;;;;7.03;4.05;;;;;;;27.23;27.98;101182.28;4997701;28;20080;-72
2022/04/13 10:27:11;;;;;;;7.22;3.90;;;;;;;27.28;27.66;101188.97;5008213;28;20448;-72
2022/04/13 10:29:43;;;;;;;9.23;3.95;;;;;;;27.29;27.58;101195.41;5008409;28;20662;-71
2022/04/13 10:32:11;;;;;;;8.80;4.22;;;;;;;27.33;27.77;101193.94;5008647;28;20188;-72
2022/04/13 10:34:41;;;;;;;6.85;3.53;;;;;;;27.36;27.72;101187.06;5005892;28;20533;-72
2022/04/13 10:37:12;;;;;;;6.72;2.83;;;;;;;27.41;27.51;101193.78;5001473;28;20467;-72
2022/04/13 10:39:41;;;;;;;7.15;3.20;;;;;;;27.41;27.31;101191.00;5021697;28;20116;-72
2022/04/13 10:42:12;;;;;;;6.22;3.22;;;;;;;27.50;27.43;101195.34;5007705;28;20120;-72
2022/04/13 10:44:49;;;;;;;7.20;3.40;;;;;;;27.52;27.51;101201.56;4996091;28;20100;-70
2022/04/13 10:47:29;;;;;;;7.25;3.22;;;;;;;27.59;27.28;101199.69;5008310;28;20648;-74
2022/04/13 10:49:58;;;;;;;6.03;3.45;;;;;;;27.60;27.53;101208.94;4997858;28;20064;-71
2022/04/13 10:52:34;;;;;;;6.82;3.65;;;;;;;27.67;27.52;101207.06;5002393;28;20140;-72
2022/04/13 10:55:10;;;;;;;9.15;3.47;;;;;;;27.72;27.34;101200.84;5005391;28;20161;-72
2022/04/13 10:57:45;;;;;;;8.27;3.42;;;;;;;27.77;27.10;101206.66;5006864;28;20049;-72
2022/04/13 11:00:15;;;;;;;7.32;3.35;;;;;;;27.79;27.17;101197.03;4997621;28;20058;-71
2022/04/13 11:02:50;;;;;;;6.57;3.38;;;;;;;27.87;27.22;101193.19;5004257;28;20046;-71
2022/04/13 11:05:17;;;;;;;6.18;3.75;;;;;;;27.89;27.29;101199.44;5003145;28;20528;-74
2022/04/13 11:07:45;;;;;;;7.95;3.88;;;;;;;27.94;27.04;101206.13;5005500;28;20421;-74
2022/04/13 11:10:19;;;;;;;7.47;3.70;;;;;;;28.00;27.20;101207.25;5007924;28;20378;-74
2022/04/13 11:12:47;;;;;;;7.30;3.80;;;;;;;28.00;27.09;101207.25;5009221;28;20108;-73
2022/04/13 11:15:18;;;;;;;6.20;3.17;;;;;;;28.01;27.26;101208.94;4999894;28;20069;-74
2022/04/13 11:17:45;;;;;;;10.40;4.00;;;;;;;28.04;26.91;101205.75;4985814;28;20062;-73
2022/04/13 11:20:16;;;;;;;7.32;3.30;;;;;;;28.08;26.86;101211.78;5014984;28;20062;-74
2022/04/13 11:23:18;;;;;;;6.30;3.30;;;;;;;27.99;27.17;101211.97;5006142;28;20050;-74
2022/04/13 11:25:47;;;;;;;6.65;2.88;;;;;;;28.03;26.82;101213.25;4989892;28;20100;-74
2022/04/13 11:28:25;;;;;;;5.72;3.20;;;;;;;28.03;26.93;101210.47;5007005;28;20528;-75
2022/04/13 11:31:05;;;;;;;5.15;2.88;;;;;;;28.01;27.07;101212.59;5000462;28;20082;-74
2022/04/13 11:33:59;;;;;;;5.97;2.83;;;;;;;27.94;26.80;101214.50;5002025;28;20049;-75
2022/04/13 11:36:28;;;;;;;6.53;2.40;;;;;;;27.98;26.83;101218.59;4989239;28;20053;-75